sensor_id;sensor_type;location;lat;lon;timestamp;P1;durP1;ratioP1;P2;durP2;ratioP2
9328;SDS011;4703;48.748;19.142;2024-03-06T00:00:15;17.60;;;13.27;;
9328;SDS011;4703;48.748;19.142;2024-03-06T00:02:42;20.20;;;14.00;;
9328;SDS011;4703;48.748;19.142;2024-03-06T00:05:09;18.93;;;12.90;;
9328;SDS011;4703;48.748;19.142;2024-03-06T00:07:36;16.60;;;12.90;;
9328;SDS011;4703;48.748;19.142;2024-03-06T00:10:04;18.97;;;13.13;;
9328;SDS011;4703;48.748;19.142;2024-03-06T00:12:32;17.30;;;13.40;;
9328;SDS011;4703;48.748;19.142;2024-03-06T00:14:59;18.63;;;13.70;;
9328;SDS011;4703;48.748;19.142;2024-03-06T00:17:26;18.37;;;13.13;;
9328;SDS011;4703;48.748;19.142;2024-03-06T00:19:53;19.10;;;14.07;;
9328;SDS011;4703;48.748;19.142;2024-03-06T00:22:21;19.87;;;12.50;;
9328;SDS011;4703;48.748;19.142;2024-03-06T00:24:49;15.97;;;12.53;;
9328;SDS011;4703;48.748;19.142;2024-03-06T00:27:17;16.43;;;13.07;;
9328;SDS011;4703;48.748;19.142;2024-03-06T00:29:45;16.50;;;11.97;;
9328;SDS011;4703;48.748;19.142;2024-03-06T00:32:12;18.20;;;13.33;;
9328;SDS011;4703;48.748;19.142;2024-03-06T00:34:40;14.17;;;10.90;;
9328;SDS011;4703;48.748;19.142;2024-03-06T00:37:07;13.97;;;11.63;;
9328;SDS011;4703;48.748;19.142;2024-03-06T00:39:34;16.50;;;12.10;;
9328;SDS011;4703;48.748;19.142;2024-03-06T00:42:02;15.90;;;12.53;;
9328;SDS011;4703;48.748;19.142;2024-03-06T00:44:29;15.30;;;12.57;;
9328;SDS011;4703;48.748;19.142;2024-03-06T00:46:56;16.27;;;11.80;;
9328;SDS011;4703;48.748;19.142;2024-03-06T00:49:23;15.37;;;11.70;;
9328;SDS011;4703;48.748;19.142;2024-03-06T00:51:50;17.13;;;11.93;;
9328;SDS011;4703;48.748;19.142;2024-03-06T00:54:17;16.33;;;13.13;;
9328;SDS011;4703;48.748;19.142;2024-03-06T00:56:44;13.80;;;11.40;;
9328;SDS011;4703;48.748;19.142;2024-03-06T00:59:12;18.30;;;12.47;;
9328;SDS011;4703;48.748;19.142;2024-03-06T01:01:39;17.77;;;12.80;;
9328;SDS011;4703;48.748;19.142;2024-03-06T01:04:07;15.03;;;11.80;;
9328;SDS011;4703;48.748;19.142;2024-03-06T01:06:34;18.30;;;12.60;;
9328;SDS011;4703;48.748;19.142;2024-03-06T01:09:01;19.53;;;12.97;;
9328;SDS011;4703;48.748;19.142;2024-03-06T01:11:28;17.40;;;12.20;;
9328;SDS011;4703;48.748;19.142;2024-03-06T01:13:55;15.93;;;11.57;;
9328;SDS011;4703;48.748;19.142;2024-03-06T01:16:22;15.30;;;11.20;;
9328;SDS011;4703;48.748;19.142;2024-03-06T01:18:49;13.90;;;11.00;;
9328;SDS011;4703;48.748;19.142;2024-03-06T01:21:16;12.97;;;10.43;;
9328;SDS011;4703;48.748;19.142;2024-03-06T01:23:43;12.90;;;10.17;;
9328;SDS011;4703;48.748;19.142;2024-03-06T01:26:10;15.73;;;11.80;;
9328;SDS011;4703;48.748;19.142;2024-03-06T01:28:38;17.43;;;12.73;;
9328;SDS011;4703;48.748;19.142;2024-03-06T01:31:06;15.97;;;11.47;;
9328;SDS011;4703;48.748;19.142;2024-03-06T01:33:33;13.93;;;11.23;;
9328;SDS011;4703;48.748;19.142;2024-03-06T01:36:00;12.03;;;10.77;;
9328;SDS011;4703;48.748;19.142;2024-03-06T01:38:27;14.37;;;10.67;;
9328;SDS011;4703;48.748;19.142;2024-03-06T01:40:54;15.83;;;11.73;;
9328;SDS011;4703;48.748;19.142;2024-03-06T01:43:25;16.60;;;11.63;;
9328;SDS011;4703;48.748;19.142;2024-03-06T01:45:52;15.00;;;12.10;;
9328;SDS011;4703;48.748;19.142;2024-03-06T01:48:21;15.27;;;11.60;;
9328;SDS011;4703;48.748;19.142;2024-03-06T01:50:54;13.37;;;10.37;;
9328;SDS011;4703;48.748;19.142;2024-03-06T01:53:24;17.27;;;10.63;;
9328;SDS011;4703;48.748;19.142;2024-03-06T01:55:53;13.30;;;10.40;;
9328;SDS011;4703;48.748;19.142;2024-03-06T01:58:21;14.93;;;11.40;;
9328;SDS011;4703;48.748;19.142;2024-03-06T02:00:50;13.97;;;10.20;;
9328;SDS011;4703;48.748;19.142;2024-03-06T02:03:18;14.90;;;10.70;;
9328;SDS011;4703;48.748;19.142;2024-03-06T02:05:47;16.90;;;11.13;;
9328;SDS011;4703;48.748;19.142;2024-03-06T02:08:16;13.57;;;11.20;;
9328;SDS011;4703;48.748;19.142;2024-03-06T02:10:44;17.20;;;11.70;;
9328;SDS011;4703;48.748;19.142;2024-03-06T02:13:13;15.67;;;11.80;;
9328;SDS011;4703;48.748;19.142;2024-03-06T02:15:41;15.67;;;11.20;;
9328;SDS011;4703;48.748;19.142;2024-03-06T02:18:08;17.30;;;11.33;;
9328;SDS011;4703;48.748;19.142;2024-03-06T02:20:39;16.77;;;11.97;;
9328;SDS011;4703;48.748;19.142;2024-03-06T02:23:07;13.97;;;11.60;;
9328;SDS011;4703;48.748;19.142;2024-03-06T02:25:34;16.03;;;12.30;;
9328;SDS011;4703;48.748;19.142;2024-03-06T02:28:02;15.50;;;11.67;;
9328;SDS011;4703;48.748;19.142;2024-03-06T02:30:30;17.03;;;11.60;;
9328;SDS011;4703;48.748;19.142;2024-03-06T02:33:03;14.10;;;11.20;;
9328;SDS011;4703;48.748;19.142;2024-03-06T02:35:30;16.53;;;11.10;;
9328;SDS011;4703;48.748;19.142;2024-03-06T02:38:00;16.00;;;12.07;;
9328;SDS011;4703;48.748;19.142;2024-03-06T02:40:31;18.50;;;11.47;;
9328;SDS011;4703;48.748;19.142;2024-03-06T02:42:58;16.57;;;10.40;;
9328;SDS011;4703;48.748;19.142;2024-03-06T02:45:25;13.47;;;11.60;;
9328;SDS011;4703;48.748;19.142;2024-03-06T02:47:53;14.60;;;10.73;;
9328;SDS011;4703;48.748;19.142;2024-03-06T02:50:20;13.27;;;10.33;;
9328;SDS011;4703;48.748;19.142;2024-03-06T02:52:47;16.33;;;10.60;;
9328;SDS011;4703;48.748;19.142;2024-03-06T02:55:14;15.73;;;11.70;;
9328;SDS011;4703;48.748;19.142;2024-03-06T02:57:41;13.90;;;11.63;;
9328;SDS011;4703;48.748;19.142;2024-03-06T03:00:09;14.67;;;10.13;;
9328;SDS011;4703;48.748;19.142;2024-03-06T03:02:39;17.77;;;12.17;;
9328;SDS011;4703;48.748;19.142;2024-03-06T03:05:06;14.20;;;10.60;;
9328;SDS011;4703;48.748;19.142;2024-03-06T03:07:34;15.60;;;11.00;;
9328;SDS011;4703;48.748;19.142;2024-03-06T03:10:01;15.30;;;10.50;;
9328;SDS011;4703;48.748;19.142;2024-03-06T03:12:30;14.57;;;10.40;;
9328;SDS011;4703;48.748;19.142;2024-03-06T03:14:57;17.23;;;12.40;;
9328;SDS011;4703;48.748;19.142;2024-03-06T03:17:24;14.63;;;11.40;;
9328;SDS011;4703;48.748;19.142;2024-03-06T03:19:52;15.97;;;12.13;;
9328;SDS011;4703;48.748;19.142;2024-03-06T03:22:19;16.90;;;11.87;;
9328;SDS011;4703;48.748;19.142;2024-03-06T03:24:46;18.43;;;10.80;;
9328;SDS011;4703;48.748;19.142;2024-03-06T03:27:13;14.30;;;10.80;;
9328;SDS011;4703;48.748;19.142;2024-03-06T03:29:40;15.20;;;11.93;;
9328;SDS011;4703;48.748;19.142;2024-03-06T03:32:07;16.13;;;10.80;;
9328;SDS011;4703;48.748;19.142;2024-03-06T03:34:35;15.73;;;11.33;;
9328;SDS011;4703;48.748;19.142;2024-03-06T03:37:02;15.13;;;10.20;;
9328;SDS011;4703;48.748;19.142;2024-03-06T03:39:29;14.83;;;11.80;;
9328;SDS011;4703;48.748;19.142;2024-03-06T03:41:56;13.43;;;11.30;;
9328;SDS011;4703;48.748;19.142;2024-03-06T03:44:23;13.97;;;10.83;;
9328;SDS011;4703;48.748;19.142;2024-03-06T03:46:50;20.07;;;11.57;;
9328;SDS011;4703;48.748;19.142;2024-03-06T03:49:17;18.07;;;11.10;;
9328;SDS011;4703;48.748;19.142;2024-03-06T03:51:45;14.93;;;11.33;;
9328;SDS011;4703;48.748;19.142;2024-03-06T03:54:12;15.10;;;11.77;;
9328;SDS011;4703;48.748;19.142;2024-03-06T03:56:39;15.07;;;10.90;;
9328;SDS011;4703;48.748;19.142;2024-03-06T03:59:06;12.20;;;10.40;;
9328;SDS011;4703;48.748;19.142;2024-03-06T04:01:34;15.40;;;10.67;;
9328;SDS011;4703;48.748;19.142;2024-03-06T04:04:01;22.93;;;12.20;;
9328;SDS011;4703;48.748;19.142;2024-03-06T04:06:28;16.87;;;13.00;;
9328;SDS011;4703;48.748;19.142;2024-03-06T04:08:55;16.63;;;12.10;;
9328;SDS011;4703;48.748;19.142;2024-03-06T04:11:22;19.60;;;12.23;;
9328;SDS011;4703;48.748;19.142;2024-03-06T04:13:49;16.20;;;11.50;;
9328;SDS011;4703;48.748;19.142;2024-03-06T04:16:17;16.33;;;11.67;;
9328;SDS011;4703;48.748;19.142;2024-03-06T04:18:44;17.23;;;11.70;;
9328;SDS011;4703;48.748;19.142;2024-03-06T04:21:12;14.43;;;11.00;;
9328;SDS011;4703;48.748;19.142;2024-03-06T04:23:41;18.60;;;11.30;;
9328;SDS011;4703;48.748;19.142;2024-03-06T04:26:10;15.03;;;10.73;;
9328;SDS011;4703;48.748;19.142;2024-03-06T04:28:38;14.63;;;11.70;;
9328;SDS011;4703;48.748;19.142;2024-03-06T04:31:05;14.67;;;10.73;;
9328;SDS011;4703;48.748;19.142;2024-03-06T04:33:32;18.50;;;11.47;;
9328;SDS011;4703;48.748;19.142;2024-03-06T04:36:03;14.97;;;11.17;;
9328;SDS011;4703;48.748;19.142;2024-03-06T04:38:34;12.77;;;10.30;;
9328;SDS011;4703;48.748;19.142;2024-03-06T04:41:01;14.40;;;10.70;;
9328;SDS011;4703;48.748;19.142;2024-03-06T04:43:28;14.13;;;11.03;;
9328;SDS011;4703;48.748;19.142;2024-03-06T04:45:56;14.63;;;10.77;;
9328;SDS011;4703;48.748;19.142;2024-03-06T04:48:23;15.27;;;10.57;;
9328;SDS011;4703;48.748;19.142;2024-03-06T04:50:50;15.20;;;11.13;;
9328;SDS011;4703;48.748;19.142;2024-03-06T04:53:17;16.53;;;10.60;;
9328;SDS011;4703;48.748;19.142;2024-03-06T04:55:44;17.97;;;10.03;;
9328;SDS011;4703;48.748;19.142;2024-03-06T04:58:11;13.80;;;10.80;;
9328;SDS011;4703;48.748;19.142;2024-03-06T05:00:40;16.53;;;11.10;;
9328;SDS011;4703;48.748;19.142;2024-03-06T05:03:07;14.47;;;10.17;;
9328;SDS011;4703;48.748;19.142;2024-03-06T05:05:51;17.97;;;12.17;;
9328;SDS011;4703;48.748;19.142;2024-03-06T05:08:36;14.90;;;10.70;;
9328;SDS011;4703;48.748;19.142;2024-03-06T05:11:21;20.43;;;11.33;;
9328;SDS011;4703;48.748;19.142;2024-03-06T05:14:06;14.67;;;10.20;;
9328;SDS011;4703;48.748;19.142;2024-03-06T05:16:50;12.80;;;10.17;;
9328;SDS011;4703;48.748;19.142;2024-03-06T05:19:35;13.73;;;9.93;;
9328;SDS011;4703;48.748;19.142;2024-03-06T05:22:20;13.17;;;9.60;;
9328;SDS011;4703;48.748;19.142;2024-03-06T05:25:05;17.77;;;11.20;;
9328;SDS011;4703;48.748;19.142;2024-03-06T05:27:50;13.03;;;10.73;;
9328;SDS011;4703;48.748;19.142;2024-03-06T05:30:34;17.70;;;12.63;;
9328;SDS011;4703;48.748;19.142;2024-03-06T05:33:19;16.17;;;12.30;;
9328;SDS011;4703;48.748;19.142;2024-03-06T05:36:06;13.97;;;10.70;;
9328;SDS011;4703;48.748;19.142;2024-03-06T05:38:51;13.27;;;11.10;;
9328;SDS011;4703;48.748;19.142;2024-03-06T05:41:36;15.83;;;12.17;;
9328;SDS011;4703;48.748;19.142;2024-03-06T05:44:20;19.03;;;12.40;;
9328;SDS011;4703;48.748;19.142;2024-03-06T05:47:05;18.07;;;11.23;;
9328;SDS011;4703;48.748;19.142;2024-03-06T05:49:50;18.83;;;13.20;;
9328;SDS011;4703;48.748;19.142;2024-03-06T05:52:35;17.47;;;12.93;;
9328;SDS011;4703;48.748;19.142;2024-03-06T05:55:19;15.57;;;11.43;;
9328;SDS011;4703;48.748;19.142;2024-03-06T05:58:04;24.70;;;14.03;;
9328;SDS011;4703;48.748;19.142;2024-03-06T06:00:37;19.53;;;13.07;;
9328;SDS011;4703;48.748;19.142;2024-03-06T06:03:05;16.20;;;12.50;;
9328;SDS011;4703;48.748;19.142;2024-03-06T06:05:34;17.83;;;12.40;;
9328;SDS011;4703;48.748;19.142;2024-03-06T06:08:03;19.23;;;12.30;;
9328;SDS011;4703;48.748;19.142;2024-03-06T06:10:31;17.37;;;12.17;;
9328;SDS011;4703;48.748;19.142;2024-03-06T06:12:58;19.90;;;13.00;;
9328;SDS011;4703;48.748;19.142;2024-03-06T06:15:25;16.20;;;11.00;;
9328;SDS011;4703;48.748;19.142;2024-03-06T06:17:52;16.77;;;11.37;;
9328;SDS011;4703;48.748;19.142;2024-03-06T06:20:19;17.33;;;12.20;;
9328;SDS011;4703;48.748;19.142;2024-03-06T06:22:47;18.63;;;11.70;;
9328;SDS011;4703;48.748;19.142;2024-03-06T06:25:14;13.47;;;10.97;;
9328;SDS011;4703;48.748;19.142;2024-03-06T06:27:42;13.47;;;11.10;;
9328;SDS011;4703;48.748;19.142;2024-03-06T06:30:09;15.07;;;11.57;;
9328;SDS011;4703;48.748;19.142;2024-03-06T06:32:42;27.27;;;18.17;;
9328;SDS011;4703;48.748;19.142;2024-03-06T06:35:10;66.27;;;44.00;;
9328;SDS011;4703;48.748;19.142;2024-03-06T06:37:40;38.03;;;27.60;;
9328;SDS011;4703;48.748;19.142;2024-03-06T06:40:08;64.77;;;42.47;;
9328;SDS011;4703;48.748;19.142;2024-03-06T06:42:36;37.87;;;26.37;;
9328;SDS011;4703;48.748;19.142;2024-03-06T06:45:03;43.53;;;29.27;;
9328;SDS011;4703;48.748;19.142;2024-03-06T06:47:33;24.40;;;18.17;;
9328;SDS011;4703;48.748;19.142;2024-03-06T06:50:00;22.20;;;13.23;;
9328;SDS011;4703;48.748;19.142;2024-03-06T06:52:32;17.27;;;13.23;;
9328;SDS011;4703;48.748;19.142;2024-03-06T06:55:00;15.20;;;12.30;;
9328;SDS011;4703;48.748;19.142;2024-03-06T06:57:28;16.00;;;12.63;;
9328;SDS011;4703;48.748;19.142;2024-03-06T06:59:55;18.50;;;11.97;;
9328;SDS011;4703;48.748;19.142;2024-03-06T07:02:22;16.30;;;13.03;;
9328;SDS011;4703;48.748;19.142;2024-03-06T07:04:49;19.23;;;13.07;;
9328;SDS011;4703;48.748;19.142;2024-03-06T07:07:17;20.80;;;13.30;;
9328;SDS011;4703;48.748;19.142;2024-03-06T07:09:43;17.00;;;12.70;;
9328;SDS011;4703;48.748;19.142;2024-03-06T07:12:10;16.93;;;12.87;;
9328;SDS011;4703;48.748;19.142;2024-03-06T07:14:37;18.27;;;13.00;;
9328;SDS011;4703;48.748;19.142;2024-03-06T07:17:04;17.40;;;13.30;;
9328;SDS011;4703;48.748;19.142;2024-03-06T07:19:31;17.93;;;13.23;;
9328;SDS011;4703;48.748;19.142;2024-03-06T07:21:59;16.80;;;12.70;;
9328;SDS011;4703;48.748;19.142;2024-03-06T07:24:26;18.67;;;13.70;;
9328;SDS011;4703;48.748;19.142;2024-03-06T07:26:53;23.33;;;15.80;;
9328;SDS011;4703;48.748;19.142;2024-03-06T07:29:20;19.60;;;14.23;;
9328;SDS011;4703;48.748;19.142;2024-03-06T07:31:47;23.20;;;15.30;;
9328;SDS011;4703;48.748;19.142;2024-03-06T07:34:14;16.30;;;14.27;;
9328;SDS011;4703;48.748;19.142;2024-03-06T07:36:41;20.23;;;15.50;;
9328;SDS011;4703;48.748;19.142;2024-03-06T07:39:08;28.70;;;20.07;;
9328;SDS011;4703;48.748;19.142;2024-03-06T07:41:35;26.40;;;17.90;;
9328;SDS011;4703;48.748;19.142;2024-03-06T07:44:03;28.80;;;21.43;;
9328;SDS011;4703;48.748;19.142;2024-03-06T07:46:30;23.27;;;16.70;;
9328;SDS011;4703;48.748;19.142;2024-03-06T07:48:57;20.87;;;14.90;;
9328;SDS011;4703;48.748;19.142;2024-03-06T07:51:24;16.87;;;13.90;;
9328;SDS011;4703;48.748;19.142;2024-03-06T07:53:51;16.93;;;11.63;;
9328;SDS011;4703;48.748;19.142;2024-03-06T07:56:19;15.90;;;12.40;;
9328;SDS011;4703;48.748;19.142;2024-03-06T07:58:46;15.90;;;10.93;;
9328;SDS011;4703;48.748;19.142;2024-03-06T08:01:13;12.30;;;10.67;;
9328;SDS011;4703;48.748;19.142;2024-03-06T08:03:41;14.10;;;10.40;;
9328;SDS011;4703;48.748;19.142;2024-03-06T08:06:09;16.33;;;10.00;;
9328;SDS011;4703;48.748;19.142;2024-03-06T08:08:36;14.57;;;11.03;;
9328;SDS011;4703;48.748;19.142;2024-03-06T08:11:07;13.83;;;10.37;;
9328;SDS011;4703;48.748;19.142;2024-03-06T08:13:37;14.90;;;9.90;;
9328;SDS011;4703;48.748;19.142;2024-03-06T08:16:05;15.43;;;10.40;;
9328;SDS011;4703;48.748;19.142;2024-03-06T08:18:33;12.20;;;9.50;;
9328;SDS011;4703;48.748;19.142;2024-03-06T08:21:01;12.63;;;10.33;;
9328;SDS011;4703;48.748;19.142;2024-03-06T08:23:31;13.57;;;9.43;;
9328;SDS011;4703;48.748;19.142;2024-03-06T08:25:59;14.43;;;9.53;;
9328;SDS011;4703;48.748;19.142;2024-03-06T08:28:27;14.63;;;10.50;;
9328;SDS011;4703;48.748;19.142;2024-03-06T08:30:54;12.67;;;10.40;;
9328;SDS011;4703;48.748;19.142;2024-03-06T08:33:21;11.00;;;9.30;;
9328;SDS011;4703;48.748;19.142;2024-03-06T08:35:49;15.50;;;10.43;;
9328;SDS011;4703;48.748;19.142;2024-03-06T08:38:16;14.67;;;11.57;;
9328;SDS011;4703;48.748;19.142;2024-03-06T08:40:43;15.93;;;10.17;;
9328;SDS011;4703;48.748;19.142;2024-03-06T08:43:13;17.80;;;10.20;;
9328;SDS011;4703;48.748;19.142;2024-03-06T08:45:41;13.90;;;11.63;;
9328;SDS011;4703;48.748;19.142;2024-03-06T08:48:09;15.07;;;10.23;;
9328;SDS011;4703;48.748;19.142;2024-03-06T08:50:36;13.90;;;11.17;;
9328;SDS011;4703;48.748;19.142;2024-03-06T08:53:04;13.67;;;9.60;;
9328;SDS011;4703;48.748;19.142;2024-03-06T08:55:31;14.30;;;9.77;;
9328;SDS011;4703;48.748;19.142;2024-03-06T08:57:58;15.30;;;11.00;;
9328;SDS011;4703;48.748;19.142;2024-03-06T09:00:27;14.03;;;10.77;;
9328;SDS011;4703;48.748;19.142;2024-03-06T09:02:54;17.03;;;12.63;;
9328;SDS011;4703;48.748;19.142;2024-03-06T09:05:21;15.83;;;12.07;;
9328;SDS011;4703;48.748;19.142;2024-03-06T09:07:49;18.37;;;12.90;;
9328;SDS011;4703;48.748;19.142;2024-03-06T09:10:16;15.73;;;11.67;;
9328;SDS011;4703;48.748;19.142;2024-03-06T09:12:45;20.93;;;13.10;;
9328;SDS011;4703;48.748;19.142;2024-03-06T09:15:13;18.67;;;13.57;;
9328;SDS011;4703;48.748;19.142;2024-03-06T09:17:42;16.77;;;12.53;;
9328;SDS011;4703;48.748;19.142;2024-03-06T09:20:11;21.20;;;15.67;;
9328;SDS011;4703;48.748;19.142;2024-03-06T09:22:40;27.40;;;19.83;;
9328;SDS011;4703;48.748;19.142;2024-03-06T09:25:09;25.93;;;19.07;;
9328;SDS011;4703;48.748;19.142;2024-03-06T09:27:38;29.40;;;20.00;;
9328;SDS011;4703;48.748;19.142;2024-03-06T09:30:05;23.20;;;15.77;;
9328;SDS011;4703;48.748;19.142;2024-03-06T09:32:35;20.57;;;15.00;;
9328;SDS011;4703;48.748;19.142;2024-03-06T09:35:04;25.90;;;14.80;;
9328;SDS011;4703;48.748;19.142;2024-03-06T09:37:33;22.37;;;14.23;;
9328;SDS011;4703;48.748;19.142;2024-03-06T09:40:00;16.77;;;12.10;;
9328;SDS011;4703;48.748;19.142;2024-03-06T09:42:26;16.37;;;13.63;;
9328;SDS011;4703;48.748;19.142;2024-03-06T09:44:54;16.00;;;12.10;;
9328;SDS011;4703;48.748;19.142;2024-03-06T09:47:21;12.10;;;9.97;;
9328;SDS011;4703;48.748;19.142;2024-03-06T09:49:51;12.87;;;7.93;;
9328;SDS011;4703;48.748;19.142;2024-03-06T09:52:23;9.13;;;7.50;;
9328;SDS011;4703;48.748;19.142;2024-03-06T09:54:54;11.80;;;9.63;;
9328;SDS011;4703;48.748;19.142;2024-03-06T09:57:22;10.03;;;8.27;;
9328;SDS011;4703;48.748;19.142;2024-03-06T09:59:49;10.00;;;7.33;;
9328;SDS011;4703;48.748;19.142;2024-03-06T10:02:36;8.57;;;7.10;;
9328;SDS011;4703;48.748;19.142;2024-03-06T10:05:05;8.27;;;7.03;;
9328;SDS011;4703;48.748;19.142;2024-03-06T10:07:49;7.53;;;6.37;;
9328;SDS011;4703;48.748;19.142;2024-03-06T10:10:21;7.47;;;6.47;;
9328;SDS011;4703;48.748;19.142;2024-03-06T10:12:49;9.60;;;6.00;;
9328;SDS011;4703;48.748;19.142;2024-03-06T10:15:17;6.50;;;5.90;;
9328;SDS011;4703;48.748;19.142;2024-03-06T10:17:44;7.40;;;6.67;;
9328;SDS011;4703;48.748;19.142;2024-03-06T10:20:19;7.97;;;5.50;;
9328;SDS011;4703;48.748;19.142;2024-03-06T10:22:48;7.43;;;6.63;;
9328;SDS011;4703;48.748;19.142;2024-03-06T10:25:24;6.90;;;6.17;;
9328;SDS011;4703;48.748;19.142;2024-03-06T10:28:09;7.23;;;5.70;;
9328;SDS011;4703;48.748;19.142;2024-03-06T10:30:38;14.10;;;10.50;;
9328;SDS011;4703;48.748;19.142;2024-03-06T10:33:09;12.90;;;9.03;;
9328;SDS011;4703;48.748;19.142;2024-03-06T10:35:41;8.67;;;6.80;;
9328;SDS011;4703;48.748;19.142;2024-03-06T10:38:10;9.93;;;8.23;;
9328;SDS011;4703;48.748;19.142;2024-03-06T10:40:38;9.40;;;7.30;;
9328;SDS011;4703;48.748;19.142;2024-03-06T10:43:10;7.23;;;6.53;;
9328;SDS011;4703;48.748;19.142;2024-03-06T10:48:18;9.93;;;7.90;;
9328;SDS011;4703;48.748;19.142;2024-03-06T10:50:47;7.50;;;6.70;;
9328;SDS011;4703;48.748;19.142;2024-03-06T10:53:17;9.77;;;7.67;;
9328;SDS011;4703;48.748;19.142;2024-03-06T10:55:50;9.40;;;6.90;;
9328;SDS011;4703;48.748;19.142;2024-03-06T10:58:18;10.03;;;7.50;;
9328;SDS011;4703;48.748;19.142;2024-03-06T11:00:47;9.53;;;8.53;;
9328;SDS011;4703;48.748;19.142;2024-03-06T11:03:15;19.10;;;14.40;;
9328;SDS011;4703;48.748;19.142;2024-03-06T11:05:43;30.53;;;24.50;;
9328;SDS011;4703;48.748;19.142;2024-03-06T11:08:14;10.50;;;9.30;;
9328;SDS011;4703;48.748;19.142;2024-03-06T11:10:43;10.50;;;9.40;;
9328;SDS011;4703;48.748;19.142;2024-03-06T11:15:47;10.13;;;8.70;;
9328;SDS011;4703;48.748;19.142;2024-03-06T11:20:59;8.57;;;7.67;;
9328;SDS011;4703;48.748;19.142;2024-03-06T11:23:29;11.17;;;8.90;;
9328;SDS011;4703;48.748;19.142;2024-03-06T11:26:04;9.30;;;8.20;;
9328;SDS011;4703;48.748;19.142;2024-03-06T11:28:33;11.33;;;9.50;;
9328;SDS011;4703;48.748;19.142;2024-03-06T11:31:07;13.20;;;10.00;;
9328;SDS011;4703;48.748;19.142;2024-03-06T11:41:46;8.37;;;7.43;;
9328;SDS011;4703;48.748;19.142;2024-03-06T11:44:15;8.13;;;7.33;;
9328;SDS011;4703;48.748;19.142;2024-03-06T11:46:45;8.80;;;6.60;;
9328;SDS011;4703;48.748;19.142;2024-03-06T11:49:21;6.90;;;6.03;;
9328;SDS011;4703;48.748;19.142;2024-03-06T11:51:56;7.37;;;6.60;;
9328;SDS011;4703;48.748;19.142;2024-03-06T11:54:25;10.03;;;6.77;;
9328;SDS011;4703;48.748;19.142;2024-03-06T11:56:54;8.47;;;6.53;;
9328;SDS011;4703;48.748;19.142;2024-03-06T11:59:24;8.10;;;6.43;;
9328;SDS011;4703;48.748;19.142;2024-03-06T12:01:56;6.13;;;5.53;;
9328;SDS011;4703;48.748;19.142;2024-03-06T12:04:29;6.43;;;5.83;;
9328;SDS011;4703;48.748;19.142;2024-03-06T12:06:58;7.27;;;6.43;;
9328;SDS011;4703;48.748;19.142;2024-03-06T12:09:26;7.67;;;6.87;;
9328;SDS011;4703;48.748;19.142;2024-03-06T12:11:55;7.23;;;6.53;;
9328;SDS011;4703;48.748;19.142;2024-03-06T12:14:25;8.17;;;7.27;;
9328;SDS011;4703;48.748;19.142;2024-03-06T12:16:59;8.17;;;5.87;;
9328;SDS011;4703;48.748;19.142;2024-03-06T12:19:34;9.93;;;6.40;;
9328;SDS011;4703;48.748;19.142;2024-03-06T12:22:05;8.57;;;6.70;;
9328;SDS011;4703;48.748;19.142;2024-03-06T12:24:32;7.40;;;6.70;;
9328;SDS011;4703;48.748;19.142;2024-03-06T12:27:00;8.57;;;7.63;;
9328;SDS011;4703;48.748;19.142;2024-03-06T12:29:30;7.60;;;6.80;;
9328;SDS011;4703;48.748;19.142;2024-03-06T12:31:59;7.27;;;6.30;;
9328;SDS011;4703;48.748;19.142;2024-03-06T12:34:28;10.90;;;6.97;;
9328;SDS011;4703;48.748;19.142;2024-03-06T12:37:10;7.03;;;6.33;;
9328;SDS011;4703;48.748;19.142;2024-03-06T12:39:38;6.50;;;5.90;;
9328;SDS011;4703;48.748;19.142;2024-03-06T12:42:09;11.20;;;8.73;;
9328;SDS011;4703;48.748;19.142;2024-03-06T12:44:38;13.30;;;8.17;;
9328;SDS011;4703;48.748;19.142;2024-03-06T12:47:07;7.97;;;7.07;;
9328;SDS011;4703;48.748;19.142;2024-03-06T12:49:34;7.60;;;6.90;;
9328;SDS011;4703;48.748;19.142;2024-03-06T12:52:01;10.10;;;6.70;;
9328;SDS011;4703;48.748;19.142;2024-03-06T12:54:31;8.13;;;6.10;;
9328;SDS011;4703;48.748;19.142;2024-03-06T12:56:58;7.20;;;6.50;;
9328;SDS011;4703;48.748;19.142;2024-03-06T12:59:25;7.47;;;6.27;;
9328;SDS011;4703;48.748;19.142;2024-03-06T13:01:52;8.33;;;7.40;;
9328;SDS011;4703;48.748;19.142;2024-03-06T13:04:20;10.03;;;6.40;;
9328;SDS011;4703;48.748;19.142;2024-03-06T13:06:47;7.30;;;6.60;;
9328;SDS011;4703;48.748;19.142;2024-03-06T13:09:14;7.47;;;6.20;;
9328;SDS011;4703;48.748;19.142;2024-03-06T13:11:41;7.27;;;6.27;;
9328;SDS011;4703;48.748;19.142;2024-03-06T13:14:09;7.50;;;6.67;;
9328;SDS011;4703;48.748;19.142;2024-03-06T13:16:39;7.87;;;6.90;;
9328;SDS011;4703;48.748;19.142;2024-03-06T13:19:06;7.73;;;6.20;;
9328;SDS011;4703;48.748;19.142;2024-03-06T13:21:34;6.90;;;6.20;;
9328;SDS011;4703;48.748;19.142;2024-03-06T13:24:01;8.00;;;6.23;;
9328;SDS011;4703;48.748;19.142;2024-03-06T13:26:29;8.17;;;7.30;;
9328;SDS011;4703;48.748;19.142;2024-03-06T13:28:57;7.73;;;6.93;;
9328;SDS011;4703;48.748;19.142;2024-03-06T13:31:24;8.80;;;6.33;;
9328;SDS011;4703;48.748;19.142;2024-03-06T13:33:51;13.30;;;10.70;;
9328;SDS011;4703;48.748;19.142;2024-03-06T13:36:19;12.27;;;9.53;;
9328;SDS011;4703;48.748;19.142;2024-03-06T13:38:48;9.50;;;6.77;;
9328;SDS011;4703;48.748;19.142;2024-03-06T13:41:15;8.87;;;7.90;;
9328;SDS011;4703;48.748;19.142;2024-03-06T13:43:42;7.50;;;6.80;;
9328;SDS011;4703;48.748;19.142;2024-03-06T13:46:10;8.10;;;7.13;;
9328;SDS011;4703;48.748;19.142;2024-03-06T13:48:37;6.73;;;6.13;;
9328;SDS011;4703;48.748;19.142;2024-03-06T13:51:04;8.03;;;6.93;;
9328;SDS011;4703;48.748;19.142;2024-03-06T13:53:31;7.63;;;6.90;;
9328;SDS011;4703;48.748;19.142;2024-03-06T13:55:59;11.83;;;10.07;;
9328;SDS011;4703;48.748;19.142;2024-03-06T13:58:26;7.53;;;6.80;;
9328;SDS011;4703;48.748;19.142;2024-03-06T14:00:53;8.03;;;7.30;;
9328;SDS011;4703;48.748;19.142;2024-03-06T14:03:20;7.83;;;7.10;;
9328;SDS011;4703;48.748;19.142;2024-03-06T14:05:48;8.47;;;7.57;;
9328;SDS011;4703;48.748;19.142;2024-03-06T14:08:15;9.77;;;6.93;;
9328;SDS011;4703;48.748;19.142;2024-03-06T14:10:43;7.57;;;6.87;;
9328;SDS011;4703;48.748;19.142;2024-03-06T14:13:12;6.83;;;5.90;;
9328;SDS011;4703;48.748;19.142;2024-03-06T14:15:39;6.90;;;6.20;;
9328;SDS011;4703;48.748;19.142;2024-03-06T14:18:06;8.00;;;6.43;;
9328;SDS011;4703;48.748;19.142;2024-03-06T14:20:33;9.00;;;6.70;;
9328;SDS011;4703;48.748;19.142;2024-03-06T14:23:00;7.70;;;6.97;;
9328;SDS011;4703;48.748;19.142;2024-03-06T14:25:28;10.20;;;7.57;;
9328;SDS011;4703;48.748;19.142;2024-03-06T14:27:55;9.43;;;6.37;;
9328;SDS011;4703;48.748;19.142;2024-03-06T14:30:22;11.80;;;7.40;;
9328;SDS011;4703;48.748;19.142;2024-03-06T14:32:49;11.00;;;7.20;;
9328;SDS011;4703;48.748;19.142;2024-03-06T14:35:17;7.23;;;6.20;;
9328;SDS011;4703;48.748;19.142;2024-03-06T14:37:44;8.23;;;6.20;;
9328;SDS011;4703;48.748;19.142;2024-03-06T14:40:11;8.97;;;6.83;;
9328;SDS011;4703;48.748;19.142;2024-03-06T14:42:39;6.83;;;6.20;;
9328;SDS011;4703;48.748;19.142;2024-03-06T14:45:06;7.90;;;7.10;;
9328;SDS011;4703;48.748;19.142;2024-03-06T14:47:35;6.90;;;6.23;;
9328;SDS011;4703;48.748;19.142;2024-03-06T14:50:02;7.47;;;6.70;;
9328;SDS011;4703;48.748;19.142;2024-03-06T14:52:31;8.60;;;7.63;;
9328;SDS011;4703;48.748;19.142;2024-03-06T14:54:58;8.30;;;7.50;;
9328;SDS011;4703;48.748;19.142;2024-03-06T14:57:25;7.73;;;6.93;;
9328;SDS011;4703;48.748;19.142;2024-03-06T14:59:53;8.10;;;6.80;;
9328;SDS011;4703;48.748;19.142;2024-03-06T15:02:24;8.47;;;6.83;;
9328;SDS011;4703;48.748;19.142;2024-03-06T15:04:51;7.97;;;7.17;;
9328;SDS011;4703;48.748;19.142;2024-03-06T15:07:18;8.73;;;7.50;;
9328;SDS011;4703;48.748;19.142;2024-03-06T15:09:45;8.57;;;6.57;;